Tri-State/Milton J. Ferguson Field
KHTS : rendu visible

Aérodrome :











RETROUVEZ-NOUS SUR...

 
LOGIN :

S'inscrire | Disclaimer

   EN    FR    IT 

 









Légende :    VFR   VFR Marginal   IFR   IFR Intensif   IFR Très Intensif
Visi : 
Plafond : 
>= 8 km
>= 3000ft
5 à 8 km
1000 à 3000 ft
1500m à 5 km
500 à 1000 ft
800 à 1500m
200 à 500 ft
< 800m
< 200 ft
Symboles :   Orages  Brouillard  Fortes neiges  Fortes précipitations  Vent > 20 kt






- Altitude de l'aérodrome : 828 ft
- Code IATA : HTS


KHTS - Tri-State/Milton J. Ferguson Field

DERNIER METAR :
  • 081806Z 24008G23KT 10SM VCTS SCT055 BKN110 25/13 A2966 RMK AO2 LTG DSNT NW-E T02500133

METARs EXPIRÉS :
  • 081651Z 24011G17KT 10SM SCT045 SCT055 26/15 A2971 RMK AO2 LTG DSNT NE AND E SLP051 T02610150
  • 081551Z 28010G19KT 10SM SCT032 SCT045 23/16 A2973 RMK AO2 LTG DSNT N AND NE SLP058 T02330156
  • 081525Z 24006KT 10SM SCT029 BKN034 BKN065 24/17 A2973 RMK AO2 LTG DSNT N T02390167

TAF KHTS
Valide du 08 à 18h jusqu'au 09 à 18h UTC


081723Z 0818/0918 27005KT P6SM VCTS SCT060CB
TEMPO 0818/0821 4SM -TSRA BKN025CB
FM082300 00000KT P6SM FEW250
FM090600 26004KT 4SM -TSRA VCTS OVC030CB
FM090900 25005KT P6SM OVC050
FM091100 30008G15KT P6SM OVC015
FM091400 30009G17KT P6SM SCT045



MET'MAP, la Météo Aéronautique d'un coup d'oeil ! - Copyright ORBIFLY Décembre 2007 - Disclaimer

ORBIFLY MET'MAP TEAM :

Programmation & Développement : Alexandra Zaïnal
Sur une idée originale de : Baudouin d'Aumeries
Assistance à la programmation : Marc-Olivier Méhu
Soutien technique & logistique : Manuel Goepfert

Contact : metmap@orbifly.com




SOURCES & CREDITS :

   NOAA       Earth
Advisory